Time;durP1;ratioP1;P1;durP2;ratioP2;P2;SDS_P1;SDS_P2;PMS_P1;PMS_P2;Temp;Humidity;BMP_temperature;BMP_pressure;BME280_temperature;BME280_humidity;BME280_pressure;Samples;Min_cycle;Max_cycle;Signal;HPM_P1;HPM_P2
2022/08/15 00:02:10;;;;;;;9.75;6.78;;;24.00;99.90;;;;;;5034444;28;20049;-85
2022/08/15 00:04:35;;;;;;;12.52;6.82;;;24.00;99.90;;;;;;5033748;28;20072;-85
2022/08/15 00:07:12;;;;;;;10.80;7.28;;;24.00;99.90;;;;;;5036583;28;20032;-84
2022/08/15 00:09:38;;;;;;;8.13;7.22;;;24.00;99.90;;;;;;5043680;28;20409;-84
2022/08/15 00:12:03;;;;;;;7.63;6.50;;;24.10;99.90;;;;;;5049025;28;20025;-84
2022/08/15 00:14:42;;;;;;;11.45;7.32;;;24.10;99.90;;;;;;5038860;28;20366;-86
2022/08/15 00:17:09;;;;;;;9.32;7.13;;;24.10;99.90;;;;;;5040428;28;20393;-86
2022/08/15 00:19:38;;;;;;;14.23;7.53;;;24.10;99.90;;;;;;5039324;28;20489;-86
2022/08/15 00:22:06;;;;;;;8.65;7.45;;;24.10;99.90;;;;;;5038595;28;20781;-85
2022/08/15 00:24:35;;;;;;;9.70;7.07;;;24.10;99.90;;;;;;5033564;28;20381;-86
2022/08/15 00:27:32;;;;;;;11.85;7.85;;;24.20;99.90;;;;;;5032486;28;20026;-86
2022/08/15 00:30:02;;;;;;;9.32;7.25;;;24.20;99.90;;;;;;5052425;28;20051;-86
2022/08/15 00:32:55;;;;;;;11.93;6.90;;;24.20;99.90;;;;;;5050449;28;20108;-86
2022/08/15 00:38:13;;;;;;;7.60;6.43;;;24.10;99.90;;;;;;5044498;28;20082;-85
2022/08/15 00:44:09;;;;;;;8.35;7.10;;;24.00;99.90;;;;;;5035003;28;20028;-85
2022/08/15 00:46:35;;;;;;;7.93;6.53;;;23.90;99.90;;;;;;5034800;28;20049;-85
2022/08/15 00:49:01;;;;;;;7.78;6.95;;;23.90;99.90;;;;;;5041715;28;20037;-85
2022/08/15 00:51:53;;;;;;;9.85;6.70;;;23.80;99.90;;;;;;5035515;28;21117;-85
2022/08/15 00:54:20;;;;;;;9.80;6.57;;;23.80;99.90;;;;;;5033186;28;20079;-85
2022/08/15 00:57:09;;;;;;;8.13;6.72;;;23.80;99.90;;;;;;5033809;28;20052;-85
2022/08/15 01:00:25;;;;;;;12.50;7.93;;;23.70;99.90;;;;;;5037580;28;20060;-85
2022/08/15 01:02:56;;;;;;;8.73;7.27;;;23.60;99.90;;;;;;5033076;28;20113;-85
2022/08/15 01:05:21;;;;;;;14.45;7.78;;;23.60;99.90;;;;;;5031868;28;20676;-85
2022/08/15 01:08:04;;;;;;;7.85;7.05;;;23.60;99.90;;;;;;5032556;28;20112;-85
2022/08/15 01:10:30;;;;;;;8.30;7.20;;;23.50;99.90;;;;;;5045382;28;20029;-85
2022/08/15 01:13:34;;;;;;;7.72;6.55;;;23.40;99.90;;;;;;5032579;28;20028;-86
2022/08/15 01:16:00;;;;;;;9.10;7.53;;;23.40;99.90;;;;;;5032956;28;20397;-86
2022/08/15 01:18:28;;;;;;;13.27;7.45;;;23.30;99.90;;;;;;5035067;28;20030;-86
2022/08/15 01:20:56;;;;;;;14.63;7.78;;;23.20;99.90;;;;;;5033118;28;20048;-86
2022/08/15 01:24:04;;;;;;;9.30;7.10;;;23.10;99.90;;;;;;5017651;28;20029;-85
2022/08/15 01:26:31;;;;;;;12.02;8.07;;;23.00;99.90;;;;;;5020192;28;20388;-87
2022/08/15 01:29:21;;;;;;;10.20;7.90;;;22.90;99.90;;;;;;5012369;28;20073;-85
2022/08/15 01:31:47;;;;;;;9.85;7.38;;;22.80;99.90;;;;;;5027194;28;20069;-84
2022/08/15 01:34:13;;;;;;;9.98;7.50;;;22.70;99.90;;;;;;5032191;28;20040;-84
2022/08/15 01:36:39;;;;;;;8.55;7.75;;;22.60;99.90;;;;;;5013784;28;20025;-85
2022/08/15 01:39:39;;;;;;;8.85;7.90;;;22.50;99.90;;;;;;5025890;28;20037;-85
2022/08/15 01:42:29;;;;;;;16.10;7.70;;;22.50;99.90;;;;;;5025041;28;20034;-85
2022/08/15 01:45:00;;;;;;;13.13;8.25;;;22.40;99.90;;;;;;5015226;28;20045;-86
2022/08/15 01:47:55;;;;;;;13.30;8.23;;;22.40;99.90;;;;;;5020039;28;20030;-85
2022/08/15 01:50:59;;;;;;;7.50;6.47;;;22.40;99.90;;;;;;5019006;28;20038;-85
2022/08/15 01:56:40;;;;;;;7.80;7.00;;;22.50;99.90;;;;;;5016994;28;20060;-85
2022/08/15 01:59:24;;;;;;;11.68;7.25;;;22.50;99.90;;;;;;5017446;28;20022;-85
2022/08/15 02:02:00;;;;;;;9.60;6.47;;;22.50;99.90;;;;;;5020637;28;20017;-85
2022/08/15 02:04:35;;;;;;;6.63;5.93;;;22.50;99.90;;;;;;5015990;28;20069;-85
2022/08/15 02:07:03;;;;;;;;;;;22.50;99.90;;;;;;5019344;28;20026;-85
2022/08/15 02:09:30;;;;;;;11.55;7.20;;;22.50;99.90;;;;;;5023154;28;19920;-85
2022/08/15 02:12:40;;;;;;;9.35;6.70;;;22.50;99.90;;;;;;5018119;28;20148;-86
2022/08/15 02:15:12;;;;;;;12.88;8.25;;;22.50;99.90;;;;;;5026136;28;20030;-86
2022/08/15 02:17:39;;;;;;;9.02;7.32;;;22.50;99.90;;;;;;5027507;28;20471;-85
2022/08/15 02:20:05;;;;;;;8.73;6.88;;;22.50;99.90;;;;;;5018751;28;20072;-85
2022/08/15 02:22:31;;;;;;;10.50;7.82;;;22.50;99.90;;;;;;5046033;28;20033;-85
2022/08/15 02:25:12;;;;;;;9.18;7.32;;;22.50;99.90;;;;;;5040480;28;20036;-85
2022/08/15 02:27:39;;;;;;;9.38;7.45;;;22.40;99.90;;;;;;5043032;28;20021;-85
2022/08/15 02:30:39;;;;;;;8.93;7.00;;;22.30;99.90;;;;;;5041972;28;20455;-85
2022/08/15 02:33:05;;;;;;;9.10;7.30;;;22.20;99.90;;;;;;5035769;28;20432;-85
2022/08/15 02:35:32;;;;;;;12.00;8.18;;;22.10;99.90;;;;;;5040177;28;20021;-85
2022/08/15 02:38:03;;;;;;;9.60;7.63;;;22.00;99.90;;;;;;5053100;28;20044;-85
2022/08/15 02:40:29;;;;;;;12.50;7.97;;;21.90;99.90;;;;;;5036344;28;20021;-85
2022/08/15 02:42:58;;;;;;;10.80;7.78;;;21.80;99.90;;;;;;5045884;28;20068;-85
2022/08/15 02:45:25;;;;;;;10.27;7.80;;;21.70;99.90;;;;;;5048521;28;20033;-85
2022/08/15 02:47:51;;;;;;;8.02;7.22;;;21.60;99.90;;;;;;5038927;28;20013;-85
2022/08/15 02:50:16;;;;;;;9.77;7.93;;;21.60;99.90;;;;;;5048605;28;20025;-85
2022/08/15 02:53:15;;;;;;;13.00;8.82;;;21.50;99.90;;;;;;5035441;28;20377;-85
2022/08/15 02:55:44;;;;;;;10.25;8.43;;;21.50;99.90;;;;;;5035987;28;20022;-85
2022/08/15 02:58:16;;;;;;;10.80;8.30;;;21.40;99.90;;;;;;5035319;28;20033;-85
2022/08/15 03:00:45;;;;;;;10.57;8.68;;;21.30;99.90;;;;;;5045505;28;20017;-84
2022/08/15 03:03:14;;;;;;;13.45;8.57;;;21.20;99.90;;;;;;5035587;28;20034;-85
2022/08/15 03:06:04;;;;;;;13.30;9.00;;;21.10;99.90;;;;;;5039884;28;20485;-85
2022/08/15 03:08:30;;;;;;;12.43;9.68;;;21.00;99.90;;;;;;5034432;28;20053;-85
2022/08/15 03:10:56;;;;;;;9.07;8.18;;;20.90;99.90;;;;;;5041692;28;20076;-85
2022/08/15 03:13:40;;;;;;;13.70;9.38;;;20.80;99.90;;;;;;5050208;28;20492;-85
2022/08/15 03:16:08;;;;;;;19.33;8.93;;;20.80;99.90;;;;;;5034727;28;20079;-85
2022/08/15 03:18:36;;;;;;;12.98;9.18;;;20.80;99.90;;;;;;5040979;28;20026;-85
2022/08/15 03:21:05;;;;;;;11.13;9.02;;;20.70;99.90;;;;;;5033192;28;20044;-85
2022/08/15 03:24:06;;;;;;;16.27;9.82;;;20.70;99.90;;;;;;5035583;28;20026;-84
2022/08/15 03:26:32;;;;;;;11.32;9.68;;;20.60;99.90;;;;;;5043953;28;20154;-84
2022/08/15 03:28:59;;;;;;;11.27;8.65;;;20.60;99.90;;;;;;5039943;28;20525;-84
2022/08/15 03:31:52;;;;;;;10.57;8.57;;;20.60;99.90;;;;;;5035449;28;20036;-84
2022/08/15 03:34:22;;;;;;;11.00;9.40;;;20.60;99.90;;;;;;5042452;28;20025;-85
2022/08/15 03:36:51;;;;;;;13.13;9.00;;;20.50;99.90;;;;;;5045404;28;20100;-84
2022/08/15 03:39:20;;;;;;;10.77;8.95;;;20.50;99.90;;;;;;5048378;28;20044;-84
2022/08/15 03:41:46;;;;;;;9.93;8.93;;;20.50;99.90;;;;;;5034483;28;20022;-85
2022/08/15 03:44:15;;;;;;;14.40;8.88;;;20.50;99.90;;;;;;5051499;28;20070;-85
2022/08/15 03:46:41;;;;;;;9.95;8.75;;;20.50;99.90;;;;;;5047939;28;20016;-85
2022/08/15 03:49:17;;;;;;;9.57;8.57;;;20.50;99.90;;;;;;5037194;28;20032;-85
2022/08/15 03:51:45;;;;;;;10.25;9.07;;;20.50;99.90;;;;;;5054391;28;20028;-85
2022/08/15 03:54:12;;;;;;;9.00;8.07;;;20.50;99.90;;;;;;5051638;28;20025;-85
2022/08/15 03:56:40;;;;;;;10.23;8.70;;;20.50;99.90;;;;;;5040871;28;20021;-85
2022/08/15 03:59:05;;;;;;;11.13;9.20;;;20.50;99.90;;;;;;5043805;28;20025;-84
2022/08/15 04:01:35;;;;;;;12.68;9.18;;;20.50;99.90;;;;;;5042526;28;20024;-85
2022/08/15 04:04:01;;;;;;;13.82;9.50;;;20.50;99.90;;;;;;5038573;28;20167;-84
2022/08/15 04:06:31;;;;;;;14.25;9.32;;;20.50;99.90;;;;;;5044973;28;20029;-85
2022/08/15 04:08:57;;;;;;;14.55;9.20;;;20.50;99.90;;;;;;5037183;28;20029;-85
2022/08/15 04:11:45;;;;;;;11.18;8.88;;;20.50;99.90;;;;;;5034858;28;20430;-84
2022/08/15 04:14:11;;;;;;;9.23;8.32;;;20.60;99.90;;;;;;5044857;28;20416;-85
2022/08/15 04:16:36;;;;;;;12.35;8.65;;;20.60;99.90;;;;;;5045642;28;20044;-84
2022/08/15 04:19:15;;;;;;;10.68;9.18;;;20.70;99.90;;;;;;5048054;28;20024;-84
2022/08/15 04:21:53;;;;;;;9.45;8.10;;;20.70;99.90;;;;;;5043308;28;20504;-85
2022/08/15 04:24:44;;;;;;;20.08;9.43;;;20.70;99.90;;;;;;5042172;28;20187;-84
2022/08/15 04:27:09;;;;;;;13.63;9.02;;;20.70;99.90;;;;;;5052415;28;20021;-84
2022/08/15 04:29:42;;;;;;;13.98;10.05;;;20.70;99.90;;;;;;5047891;28;20044;-84
2022/08/15 04:32:12;;;;;;;13.95;8.55;;;20.60;99.90;;;;;;5047136;28;20130;-85
2022/08/15 04:34:41;;;;;;;9.13;7.65;;;20.70;99.90;;;;;;5040149;28;20474;-84
2022/08/15 04:37:07;;;;;;;14.90;8.88;;;20.60;99.90;;;;;;5038612;28;20032;-84
2022/08/15 04:39:50;;;;;;;11.00;9.75;;;20.70;99.90;;;;;;5036498;28;20493;-85
2022/08/15 04:42:16;;;;;;;16.60;8.65;;;20.70;99.90;;;;;;5034520;28;20025;-85
2022/08/15 04:44:43;;;;;;;11.95;8.90;;;20.70;99.90;;;;;;5038687;28;20025;-85
2022/08/15 04:47:16;;;;;;;14.68;9.55;;;20.70;99.90;;;;;;5050491;28;20055;-85
2022/08/15 04:49:44;;;;;;;11.60;9.13;;;20.70;99.90;;;;;;5043204;28;20397;-85
2022/08/15 04:52:14;;;;;;;15.88;9.18;;;20.70;99.90;;;;;;5035981;28;20018;-86
2022/08/15 04:54:41;;;;;;;11.15;9.07;;;20.70;99.90;;;;;;5050841;28;20025;-85
2022/08/15 04:57:08;;;;;;;9.55;8.20;;;20.70;99.90;;;;;;5038802;28;20500;-85
2022/08/15 04:59:36;;;;;;;12.30;8.23;;;20.70;99.90;;;;;;5033368;28;20018;-85
2022/08/15 05:02:13;;;;;;;11.18;8.63;;;20.80;99.90;;;;;;5033237;28;20044;-86
2022/08/15 05:04:39;;;;;;;11.25;9.75;;;20.80;99.90;;;;;;5032721;28;20384;-86
2022/08/15 05:07:40;;;;;;;11.07;8.68;;;20.80;99.90;;;;;;5033430;28;20112;-85
2022/08/15 05:10:08;;;;;;;9.88;7.82;;;20.80;99.90;;;;;;5031646;28;20025;-86
2022/08/15 05:12:36;;;;;;;10.05;9.05;;;20.80;99.90;;;;;;5033470;28;20022;-85
2022/08/15 05:15:03;;;;;;;18.38;9.93;;;20.80;99.90;;;;;;5032400;28;20029;-85
2022/08/15 05:17:28;;;;;;;14.70;9.13;;;20.90;99.90;;;;;;5032185;28;20087;-85
2022/08/15 05:19:55;;;;;;;10.80;8.30;;;20.90;99.90;;;;;;5031916;28;20068;-85
2022/08/15 05:22:21;;;;;;;9.13;8.23;;;20.90;99.90;;;;;;5035637;28;20029;-85
2022/08/15 05:25:05;;;;;;;8.68;7.80;;;21.00;99.90;;;;;;5031874;28;20072;-85
2022/08/15 05:27:30;;;;;;;8.70;7.60;;;21.00;99.90;;;;;;5031720;28;20025;-85
2022/08/15 05:30:40;;;;;;;12.25;7.18;;;21.10;99.90;;;;;;5040267;28;20033;-85
2022/08/15 05:33:39;;;;;;;10.32;8.55;;;21.10;99.90;;;;;;5050089;28;20013;-85
2022/08/15 05:36:06;;;;;;;12.20;8.23;;;21.20;99.90;;;;;;5030973;28;20036;-85
2022/08/15 05:39:10;;;;;;;8.73;7.82;;;21.20;99.90;;;;;;5049430;28;20063;-85
2022/08/15 05:45:17;;;;;;;9.90;7.70;;;21.30;99.90;;;;;;5032968;28;20099;-84
2022/08/15 05:54:54;;;;;;;12.70;8.52;;;21.40;99.90;;;;;;5032960;28;20028;-85
2022/08/15 05:57:35;;;;;;;12.15;7.97;;;21.40;99.90;;;;;;5031839;28;20021;-85
2022/08/15 06:00:07;;;;;;;12.98;9.13;;;21.40;99.90;;;;;;5040775;28;20028;-85
2022/08/15 06:02:41;;;;;;;14.52;9.00;;;21.40;99.90;;;;;;5042148;28;20382;-86
2022/08/15 06:05:20;;;;;;;12.05;9.10;;;21.40;99.90;;;;;;5032699;28;20040;-85
2022/08/15 06:07:48;;;;;;;9.68;8.63;;;21.40;99.90;;;;;;5031320;28;20021;-85
2022/08/15 06:10:25;;;;;;;14.90;8.90;;;21.40;99.90;;;;;;5040666;28;20099;-85
2022/08/15 06:13:48;;;;;;;10.38;8.38;;;21.40;99.90;;;;;;5048103;28;20076;-85
2022/08/15 06:19:34;;;;;;;18.63;10.75;;;21.50;99.90;;;;;;5051959;28;20075;-85
2022/08/15 06:22:15;;;;;;;15.70;10.45;;;21.60;99.90;;;;;;5037344;28;20037;-85
2022/08/15 06:24:46;;;;;;;16.65;8.98;;;21.60;99.90;;;;;;5051691;28;20029;-84
2022/08/15 06:31:11;;;;;;;12.48;9.15;;;21.70;99.90;;;;;;5032122;28;20407;-84
2022/08/15 06:34:16;;;;;;;12.15;8.70;;;21.70;99.90;;;;;;5054682;28;20021;-84
2022/08/15 06:37:14;;;;;;;17.15;9.27;;;21.80;99.90;;;;;;5038778;28;20369;-85
2022/08/15 06:40:13;;;;;;;10.27;8.55;;;21.90;99.90;;;;;;5035900;28;20026;-85
2022/08/15 06:42:41;;;;;;;8.35;7.47;;;21.90;99.90;;;;;;5035739;28;20496;-84
2022/08/15 06:45:37;;;;;;;13.77;8.75;;;21.90;99.90;;;;;;5046258;28;20021;-84
2022/08/15 06:48:07;;;;;;;;;;;22.00;99.90;;;;;;5047051;28;20037;-85
2022/08/15 06:50:42;;;;;;;9.45;8.32;;;22.00;99.90;;;;;;5055689;28;19975;-85
2022/08/15 07:06:03;;;;;;;25.25;10.10;;;22.10;99.90;;;;;;5049347;28;20033;-85
2022/08/15 07:15:52;;;;;;;15.50;8.73;;;22.20;99.90;;;;;;5050352;28;20090;-86
2022/08/15 07:18:30;;;;;;;13.35;8.95;;;22.20;99.90;;;;;;5040287;28;20025;-85
2022/08/15 07:21:13;;;;;;;14.23;8.68;;;22.20;99.90;;;;;;5034991;28;20405;-85
2022/08/15 07:27:03;;;;;;;18.85;9.05;;;22.20;99.90;;;;;;5034418;28;20028;-84
2022/08/15 07:29:40;;;;;;;17.30;9.05;;;22.20;99.90;;;;;;5034582;28;20036;-85
2022/08/15 07:32:14;;;;;;;17.13;9.55;;;22.30;99.90;;;;;;5034377;28;20032;-85
2022/08/15 07:35:05;;;;;;;17.83;9.77;;;22.30;99.90;;;;;;5034527;28;20028;-84
2022/08/15 07:37:35;;;;;;;29.27;10.48;;;22.30;99.90;;;;;;5049620;28;20060;-84
2022/08/15 07:40:24;;;;;;;16.77;8.68;;;22.40;99.90;;;;;;5034741;28;20033;-85
2022/08/15 07:42:51;;;;;;;14.98;9.48;;;22.40;99.90;;;;;;5033004;28;20033;-84
2022/08/15 07:45:39;;;;;;;17.55;10.23;;;22.50;99.90;;;;;;5034246;28;20409;-85
2022/08/15 07:48:19;;;;;;;14.25;9.73;;;22.50;99.90;;;;;;5032974;28;20099;-84
2022/08/15 07:51:00;;;;;;;15.95;9.63;;;22.60;99.90;;;;;;5034062;28;20108;-85
2022/08/15 07:53:26;;;;;;;19.38;9.30;;;22.70;99.90;;;;;;5033766;28;20021;-84
2022/08/15 07:56:09;;;;;;;19.30;11.45;;;22.70;99.90;;;;;;5034152;28;20037;-85
2022/08/15 07:58:35;;;;;;;14.65;9.70;;;22.80;99.90;;;;;;5033997;28;20026;-85
2022/08/15 08:01:22;;;;;;;25.15;10.40;;;22.80;99.90;;;;;;5049286;28;20029;-85
2022/08/15 08:03:58;;;;;;;26.25;9.95;;;22.90;99.90;;;;;;5033884;28;20021;-85
2022/08/15 08:06:32;;;;;;;21.10;10.82;;;23.00;99.90;;;;;;5048864;28;20048;-84
2022/08/15 08:09:04;;;;;;;18.13;9.35;;;23.00;99.90;;;;;;5049178;28;20030;-84
2022/08/15 08:11:32;;;;;;;18.50;10.38;;;23.10;99.90;;;;;;5033718;28;20462;-85
2022/08/15 08:14:42;;;;;;;26.33;10.45;;;23.20;99.90;;;;;;5048958;28;20017;-85
2022/08/15 08:18:02;;;;;;;19.52;10.30;;;23.30;99.90;;;;;;5034929;28;20025;-86
2022/08/15 08:20:34;;;;;;;19.35;8.93;;;23.40;99.90;;;;;;5033772;28;20485;-86
2022/08/15 08:23:08;;;;;;;16.92;9.65;;;23.50;99.90;;;;;;5038811;28;20067;-86
2022/08/15 08:32:38;;;;;;;18.20;9.05;;;24.00;99.90;;;;;;5049396;28;20313;-86
2022/08/15 08:35:42;;;;;;;21.23;9.00;;;24.30;99.90;;;;;;5043476;28;20041;-86
2022/08/15 08:41:56;;;;;;;22.92;9.10;;;24.50;99.90;;;;;;5033713;28;20072;-86
2022/08/15 08:45:15;;;;;;;17.83;9.13;;;24.60;99.90;;;;;;5041596;28;20487;-85
2022/08/15 08:48:03;;;;;;;11.65;7.82;;;24.70;99.90;;;;;;5033216;28;20124;-86
2022/08/15 08:51:08;;;;;;;16.30;9.35;;;24.70;99.90;;;;;;5035760;28;20025;-85
2022/08/15 08:56:53;;;;;;;14.13;8.27;;;24.80;99.90;;;;;;5041164;28;20507;-86
2022/08/15 08:59:52;;;;;;;11.52;8.05;;;24.90;99.90;;;;;;5052516;28;20098;-86
2022/08/15 09:02:26;;;;;;;16.08;7.93;;;24.90;99.90;;;;;;5051940;28;20025;-86
2022/08/15 09:05:28;;;;;;;14.00;8.13;;;25.00;99.90;;;;;;5033992;28;20029;-87
2022/08/15 09:11:27;;;;;;;11.68;7.20;;;25.20;99.90;;;;;;5030632;28;20041;-86
2022/08/15 09:13:57;;;;;;;12.32;8.25;;;25.30;99.90;;;;;;5034593;28;20030;-86
2022/08/15 09:16:31;;;;;;;16.25;7.82;;;25.40;99.90;;;;;;5033096;28;20477;-87
2022/08/15 09:19:41;;;;;;;12.73;8.45;;;25.40;99.90;;;;;;5035336;28;20022;-86
2022/08/15 09:22:39;;;;;;;13.55;7.57;;;25.50;99.90;;;;;;5032550;28;20497;-86
2022/08/15 09:25:06;;;;;;;13.82;7.47;;;25.50;99.90;;;;;;5032512;28;20393;-86
2022/08/15 09:34:44;;;;;;;15.82;8.05;;;25.80;99.90;;;;;;5059486;28;20100;-85
2022/08/15 09:37:51;;;;;;;11.02;7.10;;;25.90;99.90;;;;;;5037151;28;20067;-86
2022/08/15 09:40:49;;;;;;;11.63;7.30;;;26.00;99.90;;;;;;5033456;28;20049;-86
2022/08/15 09:43:18;;;;;;;10.45;7.03;;;26.20;99.90;;;;;;5032891;28;20021;-86
2022/08/15 09:46:07;;;;;;;13.02;8.00;;;26.30;99.90;;;;;;5036969;28;20017;-86
2022/08/15 09:49:35;;;;;;;16.35;7.40;;;26.50;99.90;;;;;;5032429;28;20041;-85
2022/08/15 09:55:46;;;;;;;10.68;8.02;;;26.80;99.90;;;;;;5032050;28;20028;-85
2022/08/15 09:58:51;;;;;;;10.90;7.28;;;26.80;99.90;;;;;;5036766;28;20052;-86
2022/08/15 10:01:22;;;;;;;13.10;7.43;;;26.80;99.90;;;;;;5038465;28;20017;-86
2022/08/15 10:03:56;;;;;;;12.60;7.68;;;26.90;99.90;;;;;;5050270;28;20033;-86
2022/08/15 10:06:28;;;;;;;10.10;7.68;;;27.00;99.90;;;;;;5032798;28;20431;-86
2022/08/15 10:09:08;;;;;;;14.35;7.50;;;27.10;99.90;;;;;;5050007;28;20045;-85
2022/08/15 10:11:38;;;;;;;17.83;7.72;;;27.20;99.90;;;;;;5046729;28;20148;-85
2022/08/15 10:14:14;;;;;;;13.05;7.18;;;27.30;99.00;;;;;;5036052;28;20480;-85
2022/08/15 10:16:39;;;;;;;8.07;7.22;;;27.40;97.50;;;;;;5046534;28;20021;-85
2022/08/15 10:19:30;;;;;;;12.75;7.75;;;27.50;97.00;;;;;;5036173;28;20096;-86
2022/08/15 10:22:24;;;;;;;11.73;7.03;;;27.50;96.80;;;;;;5027167;28;20054;-88
2022/08/15 10:25:17;;;;;;;16.48;7.97;;;27.60;95.60;;;;;;5035464;28;20485;-84
2022/08/15 10:28:16;;;;;;;14.35;7.95;;;27.50;95.20;;;;;;5052588;28;20111;-85
2022/08/15 10:30:46;;;;;;;16.20;7.35;;;27.60;94.50;;;;;;5034185;28;20525;-85
2022/08/15 10:33:35;;;;;;;13.63;7.50;;;27.60;94.40;;;;;;5038730;28;20622;-85
2022/08/15 10:36:13;;;;;;;17.02;8.00;;;27.60;94.00;;;;;;5055770;28;20036;-85
2022/08/15 10:38:44;;;;;;;12.13;7.65;;;27.60;92.90;;;;;;5041321;28;20112;-85
2022/08/15 10:41:16;;;;;;;13.60;7.68;;;27.70;93.30;;;;;;5035543;28;20028;-85
2022/08/15 10:44:13;;;;;;;11.73;7.10;;;27.60;92.30;;;;;;5035805;28;20091;-86
2022/08/15 10:47:15;;;;;;;15.23;8.10;;;27.60;93.20;;;;;;5049080;28;20062;-85
2022/08/15 10:49:58;;;;;;;7.85;7.05;;;27.60;92.90;;;;;;5042935;28;20540;-85
2022/08/15 10:53:13;;;;;;;12.45;7.03;;;27.70;91.50;;;;;;5054892;28;20039;-85
2022/08/15 10:55:40;;;;;;;16.40;6.82;;;28.00;90.60;;;;;;5038062;28;20087;-85
2022/08/15 10:58:24;;;;;;;14.48;7.35;;;28.00;90.80;;;;;;5040255;28;20029;-85
2022/08/15 11:01:09;;;;;;;10.02;7.68;;;28.10;90.60;;;;;;5040092;28;20024;-85
2022/08/15 11:03:48;;;;;;;11.32;7.63;;;28.10;89.30;;;;;;5053378;28;20035;-85
2022/08/15 11:06:16;;;;;;;12.90;7.47;;;28.00;90.00;;;;;;5039110;28;20045;-85
2022/08/15 11:08:54;;;;;;;10.98;7.57;;;27.90;90.00;;;;;;5040598;28;20030;-84
2022/08/15 11:11:30;;;;;;;11.00;7.07;;;27.80;89.90;;;;;;5035039;28;20026;-85
2022/08/15 11:13:58;;;;;;;9.68;7.00;;;27.80;87.70;;;;;;5034412;28;20539;-85
2022/08/15 11:16:41;;;;;;;11.25;7.70;;;27.60;88.00;;;;;;5037554;28;20029;-85
2022/08/15 11:19:19;;;;;;;12.02;7.53;;;27.60;87.60;;;;;;5041980;28;20024;-85
2022/08/15 11:22:16;;;;;;;14.68;7.93;;;27.60;90.00;;;;;;5053474;28;20032;-85
2022/08/15 11:24:56;;;;;;;11.77;7.13;;;27.60;90.20;;;;;;5035654;28;20049;-85
2022/08/15 11:27:24;;;;;;;10.23;7.15;;;27.60;87.70;;;;;;5035255;28;20075;-84
2022/08/15 11:29:52;;;;;;;9.80;6.38;;;27.60;86.80;;;;;;5040236;28;20025;-85
2022/08/15 11:32:35;;;;;;;14.90;8.23;;;27.50;87.80;;;;;;5034900;28;20029;-85
2022/08/15 11:35:25;;;;;;;9.80;7.68;;;27.50;87.00;;;;;;5039484;28;20029;-85
2022/08/15 11:37:54;;;;;;;11.05;7.55;;;27.50;88.70;;;;;;5044975;28;20390;-84
2022/08/15 11:40:55;;;;;;;11.38;8.23;;;27.40;88.90;;;;;;5034763;28;20034;-84
2022/08/15 11:43:21;;;;;;;13.88;8.52;;;27.40;88.10;;;;;;5042465;28;20029;-85
2022/08/15 11:45:50;;;;;;;15.20;7.22;;;27.40;88.80;;;;;;5038037;28;20110;-84
2022/08/15 11:48:26;;;;;;;10.70;8.07;;;27.50;91.10;;;;;;5038019;28;20388;-84
2022/08/15 11:54:45;;;;;;;16.60;8.25;;;27.50;99.90;;;;;;5052021;28;20090;-84
2022/08/15 11:57:41;;;;;;;18.15;8.77;;;27.30;99.90;;;;;;5049740;28;20025;-84
2022/08/15 12:00:48;;;;;;;32.28;11.23;;;27.00;99.90;;;;;;5045597;28;20025;-83
2022/08/15 12:03:34;;;;;;;25.95;8.68;;;26.50;99.90;;;;;;5053160;28;20496;-86
